sensor_id;sensor_type;location;lat;lon;timestamp;temperature;humidity
15182;DHT22;7692;50.602;8.692;2024-03-06T00:49:37;6.40;99.90
15182;DHT22;7692;50.602;8.692;2024-03-06T00:52:08;6.40;99.90
15182;DHT22;7692;50.602;8.692;2024-03-06T00:54:38;6.40;99.90
15182;DHT22;7692;50.602;8.692;2024-03-06T00:57:06;6.40;99.90
15182;DHT22;7692;50.602;8.692;2024-03-06T00:59:34;6.40;99.90
15182;DHT22;7692;50.602;8.692;2024-03-06T01:02:02;6.40;99.90
15182;DHT22;7692;50.602;8.692;2024-03-06T02:46:54;6.00;99.90
15182;DHT22;7692;50.602;8.692;2024-03-06T02:49:24;6.10;99.90
15182;DHT22;7692;50.602;8.692;2024-03-06T02:51:52;6.10;99.90
15182;DHT22;7692;50.602;8.692;2024-03-06T02:54:21;6.00;99.90
15182;DHT22;7692;50.602;8.692;2024-03-06T02:56:52;5.90;99.90
15182;DHT22;7692;50.602;8.692;2024-03-06T02:59:20;5.90;99.90
15182;DHT22;7692;50.602;8.692;2024-03-06T03:01:48;5.90;99.90
15182;DHT22;7692;50.602;8.692;2024-03-06T03:04:16;5.90;99.90
15182;DHT22;7692;50.602;8.692;2024-03-06T03:06:44;5.80;99.90
15182;DHT22;7692;50.602;8.692;2024-03-06T03:09:12;5.90;99.90
15182;DHT22;7692;50.602;8.692;2024-03-06T03:11:42;5.80;99.90
15182;DHT22;7692;50.602;8.692;2024-03-06T03:14:11;5.80;99.90
15182;DHT22;7692;50.602;8.692;2024-03-06T03:16:39;5.80;99.90
15182;DHT22;7692;50.602;8.692;2024-03-06T03:19:08;5.80;99.90
15182;DHT22;7692;50.602;8.692;2024-03-06T03:21:36;5.80;99.90
15182;DHT22;7692;50.602;8.692;2024-03-06T03:24:05;5.80;99.90
15182;DHT22;7692;50.602;8.692;2024-03-06T03:26:32;5.70;99.90
15182;DHT22;7692;50.602;8.692;2024-03-06T03:29:00;5.80;99.90
15182;DHT22;7692;50.602;8.692;2024-03-06T03:31:30;5.80;99.90
15182;DHT22;7692;50.602;8.692;2024-03-06T03:33:58;5.80;99.90
15182;DHT22;7692;50.602;8.692;2024-03-06T03:36:25;5.80;99.90
15182;DHT22;7692;50.602;8.692;2024-03-06T03:38:53;5.80;99.90
15182;DHT22;7692;50.602;8.692;2024-03-06T03:41:21;5.80;99.90
15182;DHT22;7692;50.602;8.692;2024-03-06T03:43:52;5.80;99.90
15182;DHT22;7692;50.602;8.692;2024-03-06T03:46:20;5.80;99.90
15182;DHT22;7692;50.602;8.692;2024-03-06T03:48:49;5.80;99.90
15182;DHT22;7692;50.602;8.692;2024-03-06T03:51:17;5.70;99.90
15182;DHT22;7692;50.602;8.692;2024-03-06T03:53:45;5.80;99.90
15182;DHT22;7692;50.602;8.692;2024-03-06T03:56:19;5.70;99.90
15182;DHT22;7692;50.602;8.692;2024-03-06T03:58:47;5.70;99.90
15182;DHT22;7692;50.602;8.692;2024-03-06T04:01:15;5.70;99.90
15182;DHT22;7692;50.602;8.692;2024-03-06T04:03:43;5.70;99.90
15182;DHT22;7692;50.602;8.692;2024-03-06T04:06:12;5.70;99.90
15182;DHT22;7692;50.602;8.692;2024-03-06T04:08:40;5.70;99.90
15182;DHT22;7692;50.602;8.692;2024-03-06T04:11:09;5.70;99.90
15182;DHT22;7692;50.602;8.692;2024-03-06T04:13:38;5.70;99.90
15182;DHT22;7692;50.602;8.692;2024-03-06T04:16:06;5.70;99.90
15182;DHT22;7692;50.602;8.692;2024-03-06T04:18:35;5.60;99.90
15182;DHT22;7692;50.602;8.692;2024-03-06T04:21:04;5.60;99.90
15182;DHT22;7692;50.602;8.692;2024-03-06T04:23:34;5.60;99.90
15182;DHT22;7692;50.602;8.692;2024-03-06T04:26:02;5.60;99.90
15182;DHT22;7692;50.602;8.692;2024-03-06T04:28:31;5.50;99.90
15182;DHT22;7692;50.602;8.692;2024-03-06T04:38:23;5.30;99.90
15182;DHT22;7692;50.602;8.692;2024-03-06T04:40:53;5.30;99.90
15182;DHT22;7692;50.602;8.692;2024-03-06T04:43:21;5.20;99.90
15182;DHT22;7692;50.602;8.692;2024-03-06T04:48:18;5.10;99.90
15182;DHT22;7692;50.602;8.692;2024-03-06T04:50:46;5.10;99.90
15182;DHT22;7692;50.602;8.692;2024-03-06T04:53:13;5.00;99.90
15182;DHT22;7692;50.602;8.692;2024-03-06T04:55:42;5.00;99.90
15182;DHT22;7692;50.602;8.692;2024-03-06T04:58:12;4.90;99.90
15182;DHT22;7692;50.602;8.692;2024-03-06T05:00:40;4.90;99.90
15182;DHT22;7692;50.602;8.692;2024-03-06T05:03:08;4.90;99.90
15182;DHT22;7692;50.602;8.692;2024-03-06T05:05:54;4.80;99.90
15182;DHT22;7692;50.602;8.692;2024-03-06T05:08:39;4.80;99.90
15182;DHT22;7692;50.602;8.692;2024-03-06T05:11:24;4.80;99.90
15182;DHT22;7692;50.602;8.692;2024-03-06T05:14:11;4.70;99.90
15182;DHT22;7692;50.602;8.692;2024-03-06T05:16:57;4.70;99.90
15182;DHT22;7692;50.602;8.692;2024-03-06T05:19:42;4.60;99.90
15182;DHT22;7692;50.602;8.692;2024-03-06T05:22:29;4.60;99.90
15182;DHT22;7692;50.602;8.692;2024-03-06T05:25:15;4.60;99.90
15182;DHT22;7692;50.602;8.692;2024-03-06T05:28:00;4.60;99.90
15182;DHT22;7692;50.602;8.692;2024-03-06T05:30:47;4.60;99.90
15182;DHT22;7692;50.602;8.692;2024-03-06T05:33:35;4.60;99.90
15182;DHT22;7692;50.602;8.692;2024-03-06T05:36:21;4.60;99.90
15182;DHT22;7692;50.602;8.692;2024-03-06T05:39:06;4.50;99.90
15182;DHT22;7692;50.602;8.692;2024-03-06T05:41:59;4.50;99.90
15182;DHT22;7692;50.602;8.692;2024-03-06T05:44:46;4.50;99.90
15182;DHT22;7692;50.602;8.692;2024-03-06T05:47:34;4.50;99.90
15182;DHT22;7692;50.602;8.692;2024-03-06T05:50:20;4.40;99.90
15182;DHT22;7692;50.602;8.692;2024-03-06T05:53:05;4.40;99.90
15182;DHT22;7692;50.602;8.692;2024-03-06T05:55:51;4.30;99.90
15182;DHT22;7692;50.602;8.692;2024-03-06T05:58:37;4.30;99.90
15182;DHT22;7692;50.602;8.692;2024-03-06T06:01:05;4.20;99.90
15182;DHT22;7692;50.602;8.692;2024-03-06T06:03:35;4.20;99.90
15182;DHT22;7692;50.602;8.692;2024-03-06T06:06:03;4.20;99.90
15182;DHT22;7692;50.602;8.692;2024-03-06T06:08:31;4.20;99.90
15182;DHT22;7692;50.602;8.692;2024-03-06T06:10:59;4.10;99.90
15182;DHT22;7692;50.602;8.692;2024-03-06T06:13:27;4.10;99.90
15182;DHT22;7692;50.602;8.692;2024-03-06T06:15:57;4.10;99.90
15182;DHT22;7692;50.602;8.692;2024-03-06T06:18:25;4.10;99.90
15182;DHT22;7692;50.602;8.692;2024-03-06T06:20:55;4.10;99.90
15182;DHT22;7692;50.602;8.692;2024-03-06T06:23:24;4.10;99.90
15182;DHT22;7692;50.602;8.692;2024-03-06T06:25:53;4.10;99.90
15182;DHT22;7692;50.602;8.692;2024-03-06T06:28:21;4.10;99.90
15182;DHT22;7692;50.602;8.692;2024-03-06T06:30:49;4.10;99.90
15182;DHT22;7692;50.602;8.692;2024-03-06T06:33:21;4.10;99.90
15182;DHT22;7692;50.602;8.692;2024-03-06T06:35:49;4.10;99.90
15182;DHT22;7692;50.602;8.692;2024-03-06T06:38:19;4.10;99.90
15182;DHT22;7692;50.602;8.692;2024-03-06T06:40:48;4.10;99.90
15182;DHT22;7692;50.602;8.692;2024-03-06T06:43:17;4.10;99.90
15182;DHT22;7692;50.602;8.692;2024-03-06T06:45:45;4.10;99.90
15182;DHT22;7692;50.602;8.692;2024-03-06T06:48:13;4.10;99.90
15182;DHT22;7692;50.602;8.692;2024-03-06T06:50:41;4.10;99.90
15182;DHT22;7692;50.602;8.692;2024-03-06T06:53:09;4.10;99.90
15182;DHT22;7692;50.602;8.692;2024-03-06T06:55:39;4.10;99.90
15182;DHT22;7692;50.602;8.692;2024-03-06T06:58:08;4.20;99.90
15182;DHT22;7692;50.602;8.692;2024-03-06T07:00:36;4.30;99.90
15182;DHT22;7692;50.602;8.692;2024-03-06T07:03:05;4.30;99.90
15182;DHT22;7692;50.602;8.692;2024-03-06T07:05:36;4.40;99.90
15182;DHT22;7692;50.602;8.692;2024-03-06T07:08:06;4.50;99.90
15182;DHT22;7692;50.602;8.692;2024-03-06T07:10:34;4.60;99.90
15182;DHT22;7692;50.602;8.692;2024-03-06T07:13:04;4.70;99.90
15182;DHT22;7692;50.602;8.692;2024-03-06T07:15:35;4.80;99.90
15182;DHT22;7692;50.602;8.692;2024-03-06T07:18:03;4.90;99.90
15182;DHT22;7692;50.602;8.692;2024-03-06T07:20:31;5.00;99.90
15182;DHT22;7692;50.602;8.692;2024-03-06T07:22:59;5.00;99.90
15182;DHT22;7692;50.602;8.692;2024-03-06T07:25:29;5.00;99.90
15182;DHT22;7692;50.602;8.692;2024-03-06T07:27:57;5.00;99.90
15182;DHT22;7692;50.602;8.692;2024-03-06T07:30:27;5.10;99.90
15182;DHT22;7692;50.602;8.692;2024-03-06T07:32:56;5.10;99.90
15182;DHT22;7692;50.602;8.692;2024-03-06T07:35:24;5.20;99.90
15182;DHT22;7692;50.602;8.692;2024-03-06T07:37:55;5.30;99.90
15182;DHT22;7692;50.602;8.692;2024-03-06T07:40:23;5.30;99.90
15182;DHT22;7692;50.602;8.692;2024-03-06T07:42:51;5.40;99.90
15182;DHT22;7692;50.602;8.692;2024-03-06T07:45:19;5.50;99.90
15182;DHT22;7692;50.602;8.692;2024-03-06T07:47:51;5.60;99.90
15182;DHT22;7692;50.602;8.692;2024-03-06T07:50:19;5.70;99.90
15182;DHT22;7692;50.602;8.692;2024-03-06T07:52:52;5.80;99.90
15182;DHT22;7692;50.602;8.692;2024-03-06T07:55:21;5.90;99.90
15182;DHT22;7692;50.602;8.692;2024-03-06T07:57:49;6.00;99.90
15182;DHT22;7692;50.602;8.692;2024-03-06T08:00:18;6.00;99.90
15182;DHT22;7692;50.602;8.692;2024-03-06T08:02:46;6.10;99.90
15182;DHT22;7692;50.602;8.692;2024-03-06T08:05:18;6.10;99.90
15182;DHT22;7692;50.602;8.692;2024-03-06T08:07:47;6.20;99.90
15182;DHT22;7692;50.602;8.692;2024-03-06T08:10:15;6.20;99.90
15182;DHT22;7692;50.602;8.692;2024-03-06T08:12:45;6.30;99.90
15182;DHT22;7692;50.602;8.692;2024-03-06T08:15:15;6.40;99.90
15182;DHT22;7692;50.602;8.692;2024-03-06T08:17:43;6.50;99.90
15182;DHT22;7692;50.602;8.692;2024-03-06T08:20:12;6.60;99.90
15182;DHT22;7692;50.602;8.692;2024-03-06T08:22:42;6.70;99.90
15182;DHT22;7692;50.602;8.692;2024-03-06T08:25:12;6.90;99.90
15182;DHT22;7692;50.602;8.692;2024-03-06T08:27:40;6.90;99.90
15182;DHT22;7692;50.602;8.692;2024-03-06T08:30:09;7.00;99.90
15182;DHT22;7692;50.602;8.692;2024-03-06T08:32:37;7.10;99.90
15182;DHT22;7692;50.602;8.692;2024-03-06T08:35:08;7.20;99.90
15182;DHT22;7692;50.602;8.692;2024-03-06T08:37:41;7.40;99.90
15182;DHT22;7692;50.602;8.692;2024-03-06T08:40:10;7.70;99.90
15182;DHT22;7692;50.602;8.692;2024-03-06T08:42:41;7.90;99.90
15182;DHT22;7692;50.602;8.692;2024-03-06T08:45:10;8.20;99.90
15182;DHT22;7692;50.602;8.692;2024-03-06T08:47:39;8.40;99.90
15182;DHT22;7692;50.602;8.692;2024-03-06T08:50:07;8.50;99.90
15182;DHT22;7692;50.602;8.692;2024-03-06T08:52:36;8.40;99.90
15182;DHT22;7692;50.602;8.692;2024-03-06T08:55:07;8.40;99.90
15182;DHT22;7692;50.602;8.692;2024-03-06T08:57:36;8.30;99.90
15182;DHT22;7692;50.602;8.692;2024-03-06T09:00:06;8.40;99.90
15182;DHT22;7692;50.602;8.692;2024-03-06T09:02:37;8.70;99.90
15182;DHT22;7692;50.602;8.692;2024-03-06T09:05:06;9.20;99.90
15182;DHT22;7692;50.602;8.692;2024-03-06T09:07:37;9.80;99.90
15182;DHT22;7692;50.602;8.692;2024-03-06T09:10:09;10.60;99.90
15182;DHT22;7692;50.602;8.692;2024-03-06T09:12:37;11.40;99.90
15182;DHT22;7692;50.602;8.692;2024-03-06T09:15:06;12.10;99.90
15182;DHT22;7692;50.602;8.692;2024-03-06T09:17:35;12.30;99.90
15182;DHT22;7692;50.602;8.692;2024-03-06T09:20:04;12.30;99.90
15182;DHT22;7692;50.602;8.692;2024-03-06T09:22:37;12.10;99.90
15182;DHT22;7692;50.602;8.692;2024-03-06T09:25:06;12.40;99.90
15182;DHT22;7692;50.602;8.692;2024-03-06T09:27:43;12.80;99.90
15182;DHT22;7692;50.602;8.692;2024-03-06T09:30:12;12.80;99.90
15182;DHT22;7692;50.602;8.692;2024-03-06T09:32:40;12.80;99.90
15182;DHT22;7692;50.602;8.692;2024-03-06T09:35:10;12.60;99.90
15182;DHT22;7692;50.602;8.692;2024-03-06T09:37:46;12.30;99.90
15182;DHT22;7692;50.602;8.692;2024-03-06T09:40:20;12.00;99.90
15182;DHT22;7692;50.602;8.692;2024-03-06T09:42:51;11.60;99.90
15182;DHT22;7692;50.602;8.692;2024-03-06T09:45:19;11.30;99.90
15182;DHT22;7692;50.602;8.692;2024-03-06T09:47:51;11.10;99.90
15182;DHT22;7692;50.602;8.692;2024-03-06T09:50:23;10.80;99.90
15182;DHT22;7692;50.602;8.692;2024-03-06T09:52:55;10.40;99.90
15182;DHT22;7692;50.602;8.692;2024-03-06T09:55:25;10.20;99.90
15182;DHT22;7692;50.602;8.692;2024-03-06T09:57:58;10.00;99.90
15182;DHT22;7692;50.602;8.692;2024-03-06T10:00:26;9.80;99.90
15182;DHT22;7692;50.602;8.692;2024-03-06T10:02:57;9.60;99.90
15182;DHT22;7692;50.602;8.692;2024-03-06T10:05:26;9.60;99.90
15182;DHT22;7692;50.602;8.692;2024-03-06T10:07:55;9.60;99.90
15182;DHT22;7692;50.602;8.692;2024-03-06T10:10:23;9.70;99.90
15182;DHT22;7692;50.602;8.692;2024-03-06T10:12:51;9.70;99.90
15182;DHT22;7692;50.602;8.692;2024-03-06T10:15:20;9.70;99.90
15182;DHT22;7692;50.602;8.692;2024-03-06T10:17:49;9.70;99.90
15182;DHT22;7692;50.602;8.692;2024-03-06T10:20:21;9.70;99.90
15182;DHT22;7692;50.602;8.692;2024-03-06T10:22:51;9.80;99.90
15182;DHT22;7692;50.602;8.692;2024-03-06T10:25:25;9.70;99.90
15182;DHT22;7692;50.602;8.692;2024-03-06T10:28:05;9.70;99.90
15182;DHT22;7692;50.602;8.692;2024-03-06T10:30:35;9.60;99.90
15182;DHT22;7692;50.602;8.692;2024-03-06T10:33:04;9.60;99.90
15182;DHT22;7692;50.602;8.692;2024-03-06T10:35:33;9.60;99.90
15182;DHT22;7692;50.602;8.692;2024-03-06T10:38:02;9.70;99.90
15182;DHT22;7692;50.602;8.692;2024-03-06T10:40:32;9.80;99.90
15182;DHT22;7692;50.602;8.692;2024-03-06T10:43:02;10.10;99.90
15182;DHT22;7692;50.602;8.692;2024-03-06T10:45:46;10.50;99.90
15182;DHT22;7692;50.602;8.692;2024-03-06T10:48:16;10.80;99.90
15182;DHT22;7692;50.602;8.692;2024-03-06T10:50:46;11.10;99.90
15182;DHT22;7692;50.602;8.692;2024-03-06T10:53:15;11.40;99.90
15182;DHT22;7692;50.602;8.692;2024-03-06T10:55:50;11.60;99.90
15182;DHT22;7692;50.602;8.692;2024-03-06T10:58:19;12.20;99.90
15182;DHT22;7692;50.602;8.692;2024-03-06T11:00:50;12.70;99.90
15182;DHT22;7692;50.602;8.692;2024-03-06T11:03:19;13.00;99.90
15182;DHT22;7692;50.602;8.692;2024-03-06T11:05:48;13.30;99.90
15182;DHT22;7692;50.602;8.692;2024-03-06T11:08:19;13.50;99.90
15182;DHT22;7692;50.602;8.692;2024-03-06T11:10:48;13.50;99.90
15182;DHT22;7692;50.602;8.692;2024-03-06T11:13:24;13.50;99.90
15182;DHT22;7692;50.602;8.692;2024-03-06T11:15:58;13.50;99.90
15182;DHT22;7692;50.602;8.692;2024-03-06T11:18:41;13.40;99.90
15182;DHT22;7692;50.602;8.692;2024-03-06T11:21:28;13.20;99.90
15182;DHT22;7692;50.602;8.692;2024-03-06T11:24:14;13.10;99.90
15182;DHT22;7692;50.602;8.692;2024-03-06T11:26:43;12.80;99.90
15182;DHT22;7692;50.602;8.692;2024-03-06T11:29:16;12.70;99.90
15182;DHT22;7692;50.602;8.692;2024-03-06T11:32:07;12.70;99.90
15182;DHT22;7692;50.602;8.692;2024-03-06T11:34:37;12.70;99.90
15182;DHT22;7692;50.602;8.692;2024-03-06T11:37:06;12.80;99.90
15182;DHT22;7692;50.602;8.692;2024-03-06T11:39:38;12.80;99.90
15182;DHT22;7692;50.602;8.692;2024-03-06T11:42:07;12.80;99.90
15182;DHT22;7692;50.602;8.692;2024-03-06T11:44:36;12.90;99.90
15182;DHT22;7692;50.602;8.692;2024-03-06T11:47:08;13.10;99.90
15182;DHT22;7692;50.602;8.692;2024-03-06T11:49:37;13.60;99.90
15182;DHT22;7692;50.602;8.692;2024-03-06T11:52:06;14.10;99.90
15182;DHT22;7692;50.602;8.692;2024-03-06T11:54:36;14.40;99.90
15182;DHT22;7692;50.602;8.692;2024-03-06T11:57:05;14.40;99.90
15182;DHT22;7692;50.602;8.692;2024-03-06T11:59:35;14.80;99.90
15182;DHT22;7692;50.602;8.692;2024-03-06T12:02:07;15.10;99.90
15182;DHT22;7692;50.602;8.692;2024-03-06T12:04:37;15.50;99.90
15182;DHT22;7692;50.602;8.692;2024-03-06T12:07:06;15.70;99.90
15182;DHT22;7692;50.602;8.692;2024-03-06T12:09:37;16.10;99.90
15182;DHT22;7692;50.602;8.692;2024-03-06T12:12:09;16.10;99.90
15182;DHT22;7692;50.602;8.692;2024-03-06T12:14:40;15.80;99.90
15182;DHT22;7692;50.602;8.692;2024-03-06T12:17:13;15.40;99.90
15182;DHT22;7692;50.602;8.692;2024-03-06T12:19:43;15.30;99.90
15182;DHT22;7692;50.602;8.692;2024-03-06T12:22:12;15.00;99.90
15182;DHT22;7692;50.602;8.692;2024-03-06T12:24:41;14.60;99.90
15182;DHT22;7692;50.602;8.692;2024-03-06T12:27:09;14.20;99.90
15182;DHT22;7692;50.602;8.692;2024-03-06T12:29:41;13.80;99.90
15182;DHT22;7692;50.602;8.692;2024-03-06T12:32:17;13.70;99.90
15182;DHT22;7692;50.602;8.692;2024-03-06T12:34:57;14.20;99.90
15182;DHT22;7692;50.602;8.692;2024-03-06T12:37:36;14.60;99.90
15182;DHT22;7692;50.602;8.692;2024-03-06T12:40:05;15.00;99.90
15182;DHT22;7692;50.602;8.692;2024-03-06T12:42:33;15.00;99.90
15182;DHT22;7692;50.602;8.692;2024-03-06T12:45:01;14.70;99.90
15182;DHT22;7692;50.602;8.692;2024-03-06T12:47:32;14.30;99.90
15182;DHT22;7692;50.602;8.692;2024-03-06T12:50:00;13.90;99.90
15182;DHT22;7692;50.602;8.692;2024-03-06T12:52:28;13.60;99.90
15182;DHT22;7692;50.602;8.692;2024-03-06T12:54:56;13.30;99.90
15182;DHT22;7692;50.602;8.692;2024-03-06T12:57:25;13.00;99.90
15182;DHT22;7692;50.602;8.692;2024-03-06T12:59:54;12.80;99.90
15182;DHT22;7692;50.602;8.692;2024-03-06T13:02:22;12.70;99.90
15182;DHT22;7692;50.602;8.692;2024-03-06T13:04:52;12.60;99.90
15182;DHT22;7692;50.602;8.692;2024-03-06T13:07:20;12.60;99.90
15182;DHT22;7692;50.602;8.692;2024-03-06T13:09:48;12.50;99.90
15182;DHT22;7692;50.602;8.692;2024-03-06T13:12:17;12.50;99.90
15182;DHT22;7692;50.602;8.692;2024-03-06T13:14:46;12.30;99.90
15182;DHT22;7692;50.602;8.692;2024-03-06T13:17:14;12.30;99.90
15182;DHT22;7692;50.602;8.692;2024-03-06T13:19:42;12.20;99.90
15182;DHT22;7692;50.602;8.692;2024-03-06T13:22:11;12.10;99.90
15182;DHT22;7692;50.602;8.692;2024-03-06T13:24:39;12.00;99.90
15182;DHT22;7692;50.602;8.692;2024-03-06T13:27:11;11.90;99.90
15182;DHT22;7692;50.602;8.692;2024-03-06T13:29:39;12.00;99.90
15182;DHT22;7692;50.602;8.692;2024-03-06T13:32:08;12.30;99.90
15182;DHT22;7692;50.602;8.692;2024-03-06T13:34:36;12.90;99.90
15182;DHT22;7692;50.602;8.692;2024-03-06T13:37:04;13.60;99.90
15182;DHT22;7692;50.602;8.692;2024-03-06T13:39:35;14.00;99.90
15182;DHT22;7692;50.602;8.692;2024-03-06T13:42:03;14.20;99.90
15182;DHT22;7692;50.602;8.692;2024-03-06T13:44:32;14.00;99.90
15182;DHT22;7692;50.602;8.692;2024-03-06T13:47:01;13.80;99.90
15182;DHT22;7692;50.602;8.692;2024-03-06T13:49:37;13.60;99.90
15182;DHT22;7692;50.602;8.692;2024-03-06T13:52:06;13.30;99.90
15182;DHT22;7692;50.602;8.692;2024-03-06T13:54:39;13.00;99.90
15182;DHT22;7692;50.602;8.692;2024-03-06T13:57:08;12.80;99.90
15182;DHT22;7692;50.602;8.692;2024-03-06T13:59:36;12.70;99.90
15182;DHT22;7692;50.602;8.692;2024-03-06T14:02:05;12.60;99.90
15182;DHT22;7692;50.602;8.692;2024-03-06T14:04:33;12.50;99.90
15182;DHT22;7692;50.602;8.692;2024-03-06T14:07:02;12.50;99.90
15182;DHT22;7692;50.602;8.692;2024-03-06T14:09:30;12.90;99.90
15182;DHT22;7692;50.602;8.692;2024-03-06T14:11:59;13.20;99.90
15182;DHT22;7692;50.602;8.692;2024-03-06T14:14:27;13.30;99.90
15182;DHT22;7692;50.602;8.692;2024-03-06T14:16:56;13.20;99.90
15182;DHT22;7692;50.602;8.692;2024-03-06T14:19:25;13.30;99.90
15182;DHT22;7692;50.602;8.692;2024-03-06T14:21:55;13.70;99.90
15182;DHT22;7692;50.602;8.692;2024-03-06T14:24:27;14.10;99.90
15182;DHT22;7692;50.602;8.692;2024-03-06T14:26:57;14.60;99.90
15182;DHT22;7692;50.602;8.692;2024-03-06T14:29:26;14.80;99.90
15182;DHT22;7692;50.602;8.692;2024-03-06T14:31:56;14.70;99.90
15182;DHT22;7692;50.602;8.692;2024-03-06T14:34:24;14.50;99.90
15182;DHT22;7692;50.602;8.692;2024-03-06T14:36:52;14.20;99.90
15182;DHT22;7692;50.602;8.692;2024-03-06T14:39:20;13.80;99.90
15182;DHT22;7692;50.602;8.692;2024-03-06T14:41:49;13.60;99.90
15182;DHT22;7692;50.602;8.692;2024-03-06T14:44:17;13.40;99.90
15182;DHT22;7692;50.602;8.692;2024-03-06T14:46:47;13.40;99.90
15182;DHT22;7692;50.602;8.692;2024-03-06T14:49:16;13.50;99.90
15182;DHT22;7692;50.602;8.692;2024-03-06T14:51:44;13.50;99.90
15182;DHT22;7692;50.602;8.692;2024-03-06T14:54:12;13.50;99.90
15182;DHT22;7692;50.602;8.692;2024-03-06T14:56:40;13.50;99.90
15182;DHT22;7692;50.602;8.692;2024-03-06T14:59:09;13.40;99.90
15182;DHT22;7692;50.602;8.692;2024-03-06T15:01:37;13.50;99.90
15182;DHT22;7692;50.602;8.692;2024-03-06T15:04:06;13.60;99.90
15182;DHT22;7692;50.602;8.692;2024-03-06T15:06:34;13.70;99.90
15182;DHT22;7692;50.602;8.692;2024-03-06T15:09:02;13.80;99.90
15182;DHT22;7692;50.602;8.692;2024-03-06T15:11:31;13.90;99.90
15182;DHT22;7692;50.602;8.692;2024-03-06T15:14:00;13.80;99.90
15182;DHT22;7692;50.602;8.692;2024-03-06T15:16:29;13.70;99.90
15182;DHT22;7692;50.602;8.692;2024-03-06T15:18:57;13.60;99.90
15182;DHT22;7692;50.602;8.692;2024-03-06T15:21:27;13.50;99.90
15182;DHT22;7692;50.602;8.692;2024-03-06T15:23:55;13.60;99.90
15182;DHT22;7692;50.602;8.692;2024-03-06T15:26:23;13.60;99.90
15182;DHT22;7692;50.602;8.692;2024-03-06T15:28:51;13.60;99.90
15182;DHT22;7692;50.602;8.692;2024-03-06T15:31:20;13.60;99.90
15182;DHT22;7692;50.602;8.692;2024-03-06T15:33:48;13.60;99.90
15182;DHT22;7692;50.602;8.692;2024-03-06T15:36:16;13.70;99.90
15182;DHT22;7692;50.602;8.692;2024-03-06T15:38:46;13.60;99.90
15182;DHT22;7692;50.602;8.692;2024-03-06T15:41:14;13.60;99.90
15182;DHT22;7692;50.602;8.692;2024-03-06T15:43:44;13.50;99.90
15182;DHT22;7692;50.602;8.692;2024-03-06T15:46:13;13.40;99.90
15182;DHT22;7692;50.602;8.692;2024-03-06T15:48:41;13.20;99.90
15182;DHT22;7692;50.602;8.692;2024-03-06T15:51:09;13.00;99.90
15182;DHT22;7692;50.602;8.692;2024-03-06T15:53:37;12.80;99.90
15182;DHT22;7692;50.602;8.692;2024-03-06T15:56:06;12.70;99.90
15182;DHT22;7692;50.602;8.692;2024-03-06T15:58:35;12.40;99.90
15182;DHT22;7692;50.602;8.692;2024-03-06T16:01:04;12.20;99.90
15182;DHT22;7692;50.602;8.692;2024-03-06T16:03:33;12.00;99.90
15182;DHT22;7692;50.602;8.692;2024-03-06T16:06:01;11.90;99.90
15182;DHT22;7692;50.602;8.692;2024-03-06T16:08:43;11.80;99.90
15182;DHT22;7692;50.602;8.692;2024-03-06T16:11:13;11.70;99.90
15182;DHT22;7692;50.602;8.692;2024-03-06T16:13:41;11.60;99.90
15182;DHT22;7692;50.602;8.692;2024-03-06T16:16:09;11.60;99.90
15182;DHT22;7692;50.602;8.692;2024-03-06T16:18:37;11.50;99.90
15182;DHT22;7692;50.602;8.692;2024-03-06T16:21:05;11.40;99.90
15182;DHT22;7692;50.602;8.692;2024-03-06T16:23:35;11.30;99.90
15182;DHT22;7692;50.602;8.692;2024-03-06T16:26:03;11.20;99.90
15182;DHT22;7692;50.602;8.692;2024-03-06T16:28:34;11.00;99.90
15182;DHT22;7692;50.602;8.692;2024-03-06T16:31:02;10.90;99.90
15182;DHT22;7692;50.602;8.692;2024-03-06T16:33:30;10.70;99.90
15182;DHT22;7692;50.602;8.692;2024-03-06T16:35:58;10.60;99.90
15182;DHT22;7692;50.602;8.692;2024-03-06T16:38:26;10.50;99.90
15182;DHT22;7692;50.602;8.692;2024-03-06T16:40:55;10.30;99.90
15182;DHT22;7692;50.602;8.692;2024-03-06T16:43:23;10.20;99.90
15182;DHT22;7692;50.602;8.692;2024-03-06T16:45:53;10.10;99.90
15182;DHT22;7692;50.602;8.692;2024-03-06T16:48:21;10.00;99.90
15182;DHT22;7692;50.602;8.692;2024-03-06T16:50:49;9.80;99.90
15182;DHT22;7692;50.602;8.692;2024-03-06T16:53:18;9.70;99.90
15182;DHT22;7692;50.602;8.692;2024-03-06T16:55:46;9.60;99.90
15182;DHT22;7692;50.602;8.692;2024-03-06T16:58:14;9.60;99.90
15182;DHT22;7692;50.602;8.692;2024-03-06T17:00:43;9.40;99.90
15182;DHT22;7692;50.602;8.692;2024-03-06T17:03:12;9.40;99.90
15182;DHT22;7692;50.602;8.692;2024-03-06T17:08:08;9.20;99.90
15182;DHT22;7692;50.602;8.692;2024-03-06T17:10:38;9.10;99.90
15182;DHT22;7692;50.602;8.692;2024-03-06T17:13:07;9.00;99.90
15182;DHT22;7692;50.602;8.692;2024-03-06T17:15:35;9.00;99.90
15182;DHT22;7692;50.602;8.692;2024-03-06T17:18:03;8.90;99.90
15182;DHT22;7692;50.602;8.692;2024-03-06T17:20:33;8.80;99.90
15182;DHT22;7692;50.602;8.692;2024-03-06T17:23:01;8.70;99.90
15182;DHT22;7692;50.602;8.692;2024-03-06T17:25:30;8.70;99.90
15182;DHT22;7692;50.602;8.692;2024-03-06T17:27:58;8.60;99.90
15182;DHT22;7692;50.602;8.692;2024-03-06T17:30:26;8.60;99.90
15182;DHT22;7692;50.602;8.692;2024-03-06T17:32:54;8.50;99.90
15182;DHT22;7692;50.602;8.692;2024-03-06T17:35:23;8.40;99.90
15182;DHT22;7692;50.602;8.692;2024-03-06T17:37:53;8.40;99.90
15182;DHT22;7692;50.602;8.692;2024-03-06T17:40:23;8.30;99.90
15182;DHT22;7692;50.602;8.692;2024-03-06T17:42:51;8.20;99.90
15182;DHT22;7692;50.602;8.692;2024-03-06T17:47:49;8.10;99.90
15182;DHT22;7692;50.602;8.692;2024-03-06T17:50:18;8.10;99.90
15182;DHT22;7692;50.602;8.692;2024-03-06T17:52:47;8.00;99.90
15182;DHT22;7692;50.602;8.692;2024-03-06T17:55:17;8.00;99.90
15182;DHT22;7692;50.602;8.692;2024-03-06T17:57:48;7.90;99.90
15182;DHT22;7692;50.602;8.692;2024-03-06T18:00:17;7.90;99.90
15182;DHT22;7692;50.602;8.692;2024-03-06T18:02:45;7.80;99.90
15182;DHT22;7692;50.602;8.692;2024-03-06T18:05:13;7.70;99.90
15182;DHT22;7692;50.602;8.692;2024-03-06T18:07:42;7.70;99.90
15182;DHT22;7692;50.602;8.692;2024-03-06T18:10:13;7.70;99.90
15182;DHT22;7692;50.602;8.692;2024-03-06T18:12:43;7.60;99.90
15182;DHT22;7692;50.602;8.692;2024-03-06T18:15:11;7.60;99.90
15182;DHT22;7692;50.602;8.692;2024-03-06T18:17:40;7.50;99.90
15182;DHT22;7692;50.602;8.692;2024-03-06T18:20:08;7.50;99.90
15182;DHT22;7692;50.602;8.692;2024-03-06T18:22:36;7.40;99.90
15182;DHT22;7692;50.602;8.692;2024-03-06T18:25:05;7.40;99.90
15182;DHT22;7692;50.602;8.692;2024-03-06T18:27:34;7.30;99.90
15182;DHT22;7692;50.602;8.692;2024-03-06T18:30:04;7.30;99.90
15182;DHT22;7692;50.602;8.692;2024-03-06T18:32:33;7.30;99.90
15182;DHT22;7692;50.602;8.692;2024-03-06T18:35:01;7.30;99.90
15182;DHT22;7692;50.602;8.692;2024-03-06T18:37:31;7.30;99.90
15182;DHT22;7692;50.602;8.692;2024-03-06T18:39:59;7.30;99.90
15182;DHT22;7692;50.602;8.692;2024-03-06T18:42:28;7.30;99.90
15182;DHT22;7692;50.602;8.692;2024-03-06T18:44:56;7.30;99.90
15182;DHT22;7692;50.602;8.692;2024-03-06T18:47:25;7.30;99.90
15182;DHT22;7692;50.602;8.692;2024-03-06T18:49:54;7.30;99.90
15182;DHT22;7692;50.602;8.692;2024-03-06T18:52:21;7.30;99.90
15182;DHT22;7692;50.602;8.692;2024-03-06T18:54:50;7.30;99.90
15182;DHT22;7692;50.602;8.692;2024-03-06T18:57:18;7.30;99.90
15182;DHT22;7692;50.602;8.692;2024-03-06T18:59:46;7.30;99.90